Maastricht Aachen Airport

EHBK · Limburg, Nederland

METAR historie EHBK · Maastricht Aachen Airport

Hieronder zie je METAR's van de afgelopen dagen. Kies een jaar om door oudere METAR's te bladeren, vanaf het jaar 2007.

6 december 2022

Tijd Code Weer Temp. Zicht Plafond Wind METAR/SPECI
11:25
I
5 °C 10 km+ 600 ft 340° 340° 6 kt METAR EHBK 061025Z AUTO 34006KT 310V010 9999 FEW003 SCT005 BKN006 05/04 Q1020 TEMPO SCT007 BKN040
10:55
I
5 °C 8 km 500 ft 330° 330° 5 kt METAR EHBK 060955Z AUTO 33005KT 280V360 8000 FEW002 SCT004 BKN005 05/04 Q1020 TEMPO SCT007 BKN040
10:25
L
4 °C 4,8 km 100 ft 330° 330° 5 kt METAR EHBK 060925Z AUTO 33005KT 270V360 4800 BKN000 OVC001 04/04 Q1020 TEMPO 6000 NSW SCT003 BKN040
09:55
L
4 °C 3,4 km 100 ft 320° 320° 4 kt METAR EHBK 060855Z AUTO 32004KT 290V350 3400 BR BKN001 OVC002 04/04 Q1019 TEMPO 1600 BKN003
09:25
L
4 °C 1 km 200 ft 300° 300° 3 kt METAR EHBK 060825Z AUTO 30003KT 270V340 1000 R21/1300N BR BKN000 OVC002 04/04 Q1019 TEMPO 1600 BR BKN003
08:55
L
3 °C 1,1 km 100 ft Var Var 2 kt METAR EHBK 060755Z AUTO VRB02KT 1100 R21/1700U -DZ OVC001 03/03 Q1019 REDZ TEMPO 0900 FG BKN002
08:25
L
3 °C 1,3 km - Var Var 1 kt METAR EHBK 060725Z AUTO VRB01KT 1300 R21/1900U BR OVC000 03/03 Q1019 REDZ TEMPO 0900 FG BKN002
07:55
L
3 °C 800 m - Var Var 2 kt METAR EHBK 060655Z AUTO VRB02KT 0800 R21/1200N DZ VV000 03/03 Q1019 TEMPO BKN002
07:25
L
3 °C 550 m - Var Var 2 kt METAR EHBK 060625Z AUTO VRB02KT 0550 R21/0800N DZ VV000 03/03 Q1019 TEMPO 0900 FG BKN002
06:55
L
3 °C 1,2 km 100 ft Var Var 2 kt METAR EHBK 060555Z AUTO VRB02KT 1200 R21/1800N BR OVC001 03/03 Q1019 TEMPO 0900 FG BKN002
06:25
L
3 °C 600 m 100 ft 210° 210° 3 kt METAR EHBK 060525Z AUTO 21003KT 190V250 0600 R21/0900N FG BKN000 OVC001 03/02 Q1019 NOSIG
05:55
L
2 °C 450 m - 210° 210° 4 kt METAR EHBK 060455Z AUTO 21004KT 0450 R21/0650N FG VV000 02/02 Q1019
05:25
L
2 °C 550 m - 230° 230° 3 kt METAR EHBK 060425Z AUTO 23003KT 0550 R21/0800N FG VV000 02/02 Q1019
04:55
L
2 °C 400 m - 210° 210° 4 kt METAR EHBK 060355Z AUTO 21004KT 0400 R21/0600N FG VV000 02/02 Q1019
04:25
L
2 °C 800 m - 230° 230° 3 kt METAR EHBK 060325Z AUTO 23003KT 0800 R21/1200D FG VV000 02/02 Q1019
03:55
L
2 °C 750 m - 220° 220° 3 kt METAR EHBK 060255Z AUTO 22003KT 0750 R21/1000N DZRA VV000 02/02 Q1019
03:25
L
2 °C 800 m - 230° 230° 4 kt METAR EHBK 060225Z AUTO 23004KT 0800 R21/1200U -RADZ VV000 02/02 Q1019
02:55
L
2 °C 650 m - 230° 230° 5 kt METAR EHBK 060155Z AUTO 23005KT 0650 R21/0900N -RA VV000 02/02 Q1020
02:25
L
2 °C 550 m - 230° 230° 5 kt METAR EHBK 060125Z AUTO 23005KT 0550 R21/0750N FG VV000 02/02 Q1020
01:55
L
2 °C 600 m - 220° 220° 6 kt METAR EHBK 060055Z AUTO 22006KT 0600 R21/0900N FG VV000 02/02 Q1020
01:25
L
2 °C 800 m - 220° 220° 7 kt METAR EHBK 060025Z AUTO 22007KT 0800 R21/1100N FG VV000 02/02 Q1020
00:25
L
1 °C 700 m - 210° 210° 6 kt METAR EHBK 052325Z AUTO 21006KT 0700 R21/1100N FG VV000 01/01 Q1020

5 december 2022

Tijd Code Weer Temp. Zicht Plafond Wind METAR/SPECI
23:55
L
1 °C 700 m - 210° 210° 6 kt METAR EHBK 052255Z AUTO 21006KT 0700 R21/1000N FG VV000 01/01 Q1020
23:25
L
1 °C 1 km - 220° 220° 6 kt METAR EHBK 052225Z AUTO 22006KT 1000 R21/1500N BR OVC000 01/01 Q1020
22:55
L
1 °C 800 m - 210° 210° 6 kt METAR EHBK 052155Z AUTO 21006KT 0800 R21/1200N FG VV000 01/01 Q1020
22:25
L
1 °C 1,1 km - 210° 210° 5 kt METAR EHBK 052125Z AUTO 21005KT 1100 R21/1600D BR OVC000 01/01 Q1020 TEMPO 2500
21:55
I
1 °C 1,5 km - 210° 210° 6 kt METAR EHBK 052055Z AUTO 21006KT 1500 -DZ OVC000 01/01 Q1020 REDZ TEMPO 2500
21:25
I
1 °C 1,5 km - 210° 210° 5 kt METAR EHBK 052025Z AUTO 21005KT 1500 DZ OVC000 01/00 Q1020 TEMPO 2500
20:55
L
1 °C 1,3 km - 210° 210° 5 kt METAR EHBK 051955Z AUTO 21005KT 1300 R21/1900N -DZ OVC000 01/00 Q1020 TEMPO 2500
20:25
L
0 °C 900 m - 210° 210° 6 kt METAR EHBK 051925Z AUTO 21006KT 0900 R21/1300N -RA VV000 00/00 Q1020 TEMPO 2500
19:55
L
0 °C 900 m - 210° 210° 5 kt METAR EHBK 051855Z AUTO 21005KT 0900 R21/1300D -RA BKN000 FEW015CB 00/00 Q1020 TEMPO 2500
19:25
L
0 °C 2,2 km 100 ft 220° 220° 4 kt METAR EHBK 051825Z AUTO 22004KT 2200 -SN BKN001 FEW015CB 00/00 Q1020 TEMPO 1200
18:55
L
0 °C 2,1 km 100 ft 230° 230° 4 kt METAR EHBK 051755Z AUTO 23004KT 2100 -SN BKN001 FEW015CB 00/00 Q1020 TEMPO 1200
18:25
L
0 °C 2,2 km 100 ft 230° 230° 4 kt METAR EHBK 051725Z AUTO 23004KT 2200 -SN OVC001 00/00 Q1019 TEMPO 1200
17:55
L
0 °C 2,8 km 100 ft 240° 240° 4 kt METAR EHBK 051655Z AUTO 24004KT 210V270 2800 -SNRA BKN000 BKN001 OVC002 00/00 Q1019 TEMPO BKN001
17:25
L
0 °C 1,9 km 100 ft 240° 240° 3 kt METAR EHBK 051625Z AUTO 24003KT 1900 -SN OVC001 00/00 Q1019 TEMPO 0800 SN
16:55
L
0 °C 1,6 km 100 ft 250° 250° 3 kt METAR EHBK 051555Z AUTO 25003KT 220V290 1600 -SN OVC001 00/00 Q1019 TEMPO 0800 SN
16:25
I
0 °C 1,9 km - 270° 270° 3 kt METAR EHBK 051525Z AUTO 27003KT 230V310 1900 -SN OVC000 00/00 Q1019 TEMPO 0800 SN
15:55
L
0 °C 1,2 km 100 ft 270° 270° 3 kt METAR EHBK 051455Z AUTO 27003KT 230V320 1200 R21/1400U -SN OVC001 00/00 Q1019 TEMPO BKN004
15:25
L
1 °C 1,7 km 100 ft Var Var 2 kt METAR EHBK 051425Z AUTO VRB02KT 1700 -SNRA OVC001 01/00 Q1019 TEMPO BKN004
14:55
L
1 °C 1,8 km 100 ft 240° 240° 2 kt METAR EHBK 051355Z AUTO 24002KT 1800 -SN FEW000 BKN001 BKN006 01/00 Q1019 TEMPO BKN004
14:25
L
1 °C 2,2 km 100 ft 260° 260° 2 kt METAR EHBK 051325Z AUTO 26002KT 2200 -SN BKN001 OVC002 01/00 Q1018 TEMPO BKN004
13:55
L
1 °C 2,8 km 100 ft Var Var 2 kt METAR EHBK 051255Z AUTO VRB02KT 2800 -SNRA OVC001 01/01 Q1018 TEMPO BKN004
13:25
L
1 °C 1,4 km 100 ft Var Var 2 kt METAR EHBK 051225Z AUTO VRB02KT 1400 R21/1600N -SNRA OVC001 01/01 Q1018 TEMPO BKN004
12:55
L
1 °C 1,8 km 100 ft Var Var 2 kt METAR EHBK 051155Z AUTO VRB02KT 1800 -RASN OVC001 01/01 Q1018 TEMPO BKN004
12:25
L
1 °C 1,2 km 100 ft 330° 330° 3 kt METAR EHBK 051125Z AUTO 33003KT 1200 R21/1400N -SN OVC001 01/00 Q1019 TEMPO BKN004
11:55
L
1 °C 1,4 km 100 ft 320° 320° 2 kt METAR EHBK 051055Z AUTO 32002KT 1400 R21/1400N -SN OVC001 01/00 Q1019 TEMPO BKN004
11:25
L
1 °C 1,8 km 100 ft 320° 320° 1 kt METAR EHBK 051025Z AUTO 32001KT 1800 -SN BKN001 OVC002 01/00 Q1018 TEMPO BKN004
10:55
L
1 °C 1,9 km 100 ft Var Var 2 kt METAR EHBK 050955Z AUTO VRB02KT 1900 -SNRA BKN001 OVC013 01/00 Q1019 TEMPO BKN004
10:25
I
1 °C 1,8 km 2.400 ft 340° 340° 2 kt METAR EHBK 050925Z AUTO 34002KT 1800 -SNRA FEW000 BKN024 BKN028 01/00 Q1018 TEMPO 0600 SN BKN001
09:55
I
0 °C 2 km 1.200 ft 330° 330° 2 kt METAR EHBK 050855Z AUTO 33002KT 2000 -RASN OVC012 00/M00 Q1018 TEMPO 0600 SN BKN001
09:25
I
0 °C 2 km 700 ft 330° 330° 1 kt METAR EHBK 050825Z AUTO 33001KT 2000 -SNRA FEW000 SCT004 BKN007 00/00 Q1018 TEMPO 0600 SN BKN001
08:55
L
0 °C 2 km 200 ft 350° 350° 2 kt METAR EHBK 050755Z AUTO 35002KT 2000 -SN OVC002 00/M00 Q1018 TEMPO 0600 SN BKN001
08:25
L
0 °C 2,9 km 300 ft 030° 030° 1 kt METAR EHBK 050725Z AUTO 03001KT 2900 -RA SCT002 OVC003 00/M00 Q1017 TEMPO 0600 SN BKN001
07:55
I
0 °C 1,8 km 600 ft 030° 030° 1 kt METAR EHBK 050655Z AUTO 03001KT 1800 -SN FEW003 SCT004 BKN006 00/M00 Q1017 TEMPO 0600 SN BKN001
07:25
L
0 °C 1,3 km 400 ft 040° 040° 1 kt METAR EHBK 050625Z AUTO 04001KT 1300 R21/1800N -SN BKN004 BKN006 OVC018 00/M00 Q1017 TEMPO 0600 SN BKN001
06:55
L
0 °C 1,3 km 1.400 ft 040° 040° 1 kt METAR EHBK 050555Z AUTO 04001KT 1300 R21/1900U -SN FEW001 BKN014 OVC017 00/M00 Q1017 TEMPO 0600 SN BKN001
06:25
I
0 °C 1,7 km 1.000 ft 050° 050° 3 kt METAR EHBK 050525Z AUTO 05003KT 1700 -SN FEW000 SCT002 BKN010 00/00 Q1017 TEMPO 0800 SN BKN001
05:55
L
1 °C 2,7 km 100 ft 060° 060° 4 kt METAR EHBK 050455Z AUTO 06004KT 2700 -SNRA BKN001 OVC003 01/00 Q1017 REDZSN TEMPO 0800 SN BKN002
05:25
L
1 °C 3 km 200 ft 050° 050° 4 kt METAR EHBK 050425Z AUTO 05004KT 3000 DZRA BKN002 OVC004 01/00 Q1016
04:55
L
1 °C 2,8 km 300 ft 030° 030° 3 kt METAR EHBK 050355Z AUTO 03003KT 2800 -SNRA BKN003 BKN004 FEW015CB 01/01 Q1016
04:25
L
1 °C 3,1 km 200 ft 030° 030° 3 kt METAR EHBK 050325Z AUTO 03003KT 3100 -RASN BKN002 BKN005 FEW015CB 01/01 Q1016
03:55
L
1 °C 2,8 km 400 ft 040° 040° 3 kt METAR EHBK 050255Z AUTO 04003KT 2800 -SNRA SCT003 BKN004 FEW015CB 01/01 Q1016
03:25
L
1 °C 3,4 km 400 ft 040° 040° 3 kt METAR EHBK 050225Z AUTO 04003KT 3400 -RA FEW003 BKN004 BKN006 FEW015CB 01/01 Q1016
02:55
L
2 °C 3,7 km 400 ft 030° 030° 3 kt METAR EHBK 050155Z AUTO 03003KT 360V060 3700 -RA FEW002 BKN004 BKN005 FEW015CB 02/01 Q1016 REDZRA
02:25
I
2 °C 3,4 km 700 ft 040° 040° 6 kt METAR EHBK 050125Z AUTO 04006KT 010V070 3400 BR FEW003 OVC007 02/01 Q1016
01:55
I
2 °C 3,1 km 700 ft 040° 040° 5 kt METAR EHBK 050055Z AUTO 04005KT 010V070 3100 DZRA FEW003 OVC007 02/01 Q1016
01:25
I
2 °C 3,3 km 600 ft 040° 040° 6 kt METAR EHBK 050025Z AUTO 04006KT 010V070 3300 -DZ FEW003/// SCT004/// BKN006/// 02/01 Q1016
00:55
I
2 °C 3,4 km 500 ft 040° 040° 6 kt METAR EHBK 042355Z AUTO 04006KT 010V070 3400 DZ SCT003 BKN005 OVC006 02/01 Q1016
00:25
I
2 °C 3,5 km 700 ft 040° 040° 5 kt METAR EHBK 042325Z AUTO 04005KT 3500 -SHRA DZ FEW004 OVC007 02/01 Q1016 REDZ

4 december 2022

Tijd Code Weer Temp. Zicht Plafond Wind METAR/SPECI
23:55
I
2 °C 3,7 km 700 ft 040° 040° 4 kt METAR EHBK 042255Z AUTO 04004KT 3700 -RA FEW006 OVC007 02/01 Q1016 REDZRA
23:25
I
2 °C 6 km 800 ft 040° 040° 5 kt METAR EHBK 042225Z AUTO 04005KT 6000 DZRA FEW007 OVC008 02/01 Q1016
22:55
I
2 °C 9 km 700 ft 020° 020° 4 kt METAR EHBK 042155Z AUTO 02004KT 350V050 9000 BKN007 OVC010 02/00 Q1015 NOSIG
22:25
I
2 °C 10 km+ 700 ft 020° 020° 5 kt METAR EHBK 042125Z AUTO 02005KT 350V050 9999 -DZ OVC007/// 02/00 Q1016 NOSIG
21:55
I
2 °C 9 km 700 ft 030° 030° 6 kt METAR EHBK 042055Z AUTO 03006KT 360V060 9000 SCT006/// BKN007/// OVC008/// 02/00 Q1016 NOSIG
21:25
I
2 °C 10 km+ 700 ft 030° 030° 6 kt METAR EHBK 042025Z AUTO 03006KT 9999 OVC007 02/M00 Q1016 NOSIG
20:55
I
1 °C 10 km+ 800 ft 030° 030° 5 kt METAR EHBK 041955Z AUTO 03005KT 9999 BKN008 OVC010 01/M00 Q1016 NOSIG
20:25
I
1 °C 10 km+ 700 ft 030° 030° 6 kt METAR EHBK 041925Z AUTO 03006KT 9999 BKN007 OVC009 01/M01 Q1015 NOSIG
19:55
M
1 °C 10 km+ 1.100 ft 030° 030° 5 kt METAR EHBK 041855Z AUTO 03005KT 9999 BKN011 OVC013 01/M01 Q1015 NOSIG
19:25
M
1 °C 10 km+ 1.200 ft 030° 030° 7 kt METAR EHBK 041825Z AUTO 03007KT 9999 FEW008/// BKN012/// OVC014/// 01/M01 Q1015 NOSIG
18:55
M
1 °C 10 km+ 1.200 ft 040° 040° 7 kt METAR EHBK 041755Z AUTO 04007KT 9999 BKN012 OVC015 01/M01 Q1015 NOSIG
18:25
M
1 °C 10 km+ 1.100 ft 040° 040° 5 kt METAR EHBK 041725Z AUTO 04005KT 010V070 9999 OVC011 01/M01 Q1015 NOSIG
17:55
M
1 °C 10 km+ 1.200 ft 040° 040° 6 kt METAR EHBK 041655Z AUTO 04006KT 9999 OVC012 01/M01 Q1015 NOSIG
17:25
M
1 °C 10 km+ 1.100 ft 050° 050° 7 kt METAR EHBK 041625Z AUTO 05007KT 9999 OVC011 01/M01 Q1015 NOSIG
16:55
M
1 °C 10 km+ 1.000 ft 050° 050° 7 kt METAR EHBK 041555Z AUTO 05007KT 9999 OVC010 01/M01 Q1015 NOSIG
16:25
M
1 °C 10 km+ 1.000 ft 050° 050° 8 kt METAR EHBK 041525Z AUTO 05008KT 020V090 9999 OVC010 01/M02 Q1015 BECMG BKN008
15:55
M
1 °C 10 km+ 1.000 ft 060° 060° 9 kt METAR EHBK 041455Z AUTO 06009KT 9999 OVC010 01/M01 Q1015 BECMG BKN008
15:25
M
1 °C 10 km+ 1.100 ft 060° 060° 8 kt METAR EHBK 041425Z AUTO 06008KT 9999 OVC011 01/M02 Q1015 BECMG BKN008
14:55
M
1 °C 10 km+ 1.000 ft 070° 070° 9 kt METAR EHBK 041355Z AUTO 07009KT 040V100 9999 OVC010 01/M02 Q1015 BECMG BKN008
14:25
M
1 °C 10 km+ 1.000 ft 070° 070° 9 kt METAR EHBK 041325Z AUTO 07009KT 030V090 9999 OVC010 01/M02 Q1015 BECMG BKN008
13:55
M
1 °C 10 km+ 1.000 ft 060° 060° 10 kt METAR EHBK 041255Z AUTO 06010KT 040V100 9999 OVC010 01/M02 Q1015 BECMG BKN008
13:25
M
1 °C 10 km+ 1.000 ft 070° 070° 9 kt METAR EHBK 041225Z AUTO 07009KT 050V110 9999 OVC010 01/M02 Q1015 BECMG BKN008
12:55
M
1 °C 10 km+ 1.000 ft 060° 060° 9 kt METAR EHBK 041155Z AUTO 06009KT 9999 OVC010 01/M02 Q1015 BECMG BKN008
12:25
M
1 °C 10 km+ 1.000 ft 070° 070° 9 kt METAR EHBK 041125Z AUTO 07009KT 9999 OVC010 01/M02 Q1016 BECMG BKN008
11:55
M
1 °C 10 km+ 1.100 ft 090° 090° 10 kt METAR EHBK 041055Z AUTO 09010KT 050V120 9999 OVC011 01/M02 Q1016 NOSIG
11:25
M
1 °C 10 km+ 1.200 ft 090° 090° 10 kt METAR EHBK 041025Z AUTO 09010KT 060V160 9999 OVC012 01/M02 Q1016 NOSIG
10:55
M
1 °C 10 km+ 1.200 ft 070° 070° 10 kt METAR EHBK 040955Z AUTO 07010KT 050V120 9999 OVC012 01/M02 Q1016 TEMPO BKN016

Wij en derden volgen je internetgedrag op onze website met cookies. Als je doorgaat, gaan we ervan uit dat je akkoord gaat met onze cookiebeleid.